createdAt,value
2023-02-11T00:01:25.564Z,37.73
2023-02-11T00:03:54.145Z,40.97
2023-02-11T00:06:22.737Z,34.27
2023-02-11T00:08:52.096Z,31.87
2023-02-11T00:11:21.726Z,32.07
2023-02-11T00:13:50.255Z,34.20
2023-02-11T00:16:20.512Z,32.27
2023-02-11T00:18:50.295Z,34.73
2023-02-11T00:21:21.185Z,30.67
2023-02-11T00:23:49.207Z,35.30
2023-02-11T00:26:20.261Z,34.97
2023-02-11T00:28:49.590Z,31.70
2023-02-11T00:31:18.778Z,35.00
2023-02-11T00:33:47.168Z,36.37
2023-02-11T00:36:17.867Z,40.40
2023-02-11T00:38:46.042Z,37.27
2023-02-11T00:41:15.021Z,34.17
2023-02-11T00:43:44.936Z,32.93
2023-02-11T00:46:13.026Z,37.47
2023-02-11T00:48:43.504Z,36.67
2023-02-11T00:51:11.628Z,36.27
2023-02-11T00:53:39.881Z,38.80
2023-02-11T00:56:08.410Z,33.47
2023-02-11T00:58:36.735Z,37.27
2023-02-11T01:01:07.856Z,38.03
2023-02-11T01:03:36.143Z,35.87
2023-02-11T01:06:04.465Z,35.60
2023-02-11T01:08:32.673Z,36.77
2023-02-11T01:11:02.739Z,35.13
2023-02-11T01:13:32.667Z,37.80
2023-02-11T01:16:01.111Z,31.53
2023-02-11T01:18:30.513Z,37.53
2023-02-11T01:20:58.488Z,44.10
2023-02-11T01:23:26.543Z,33.67
2023-02-11T01:25:54.620Z,36.13
2023-02-11T01:28:24.775Z,39.83
2023-02-11T01:30:53.012Z,37.13
2023-02-11T01:33:21.648Z,38.73
2023-02-11T01:35:51.657Z,31.93
2023-02-11T01:38:22.244Z,38.70
2023-02-11T01:40:52.555Z,40.03
2023-02-11T01:43:21.052Z,41.63
2023-02-11T01:46:02.415Z,37.87
2023-02-11T01:48:34.231Z,37.37
2023-02-11T01:51:07.178Z,39.50
2023-02-11T01:53:54.214Z,35.73
2023-02-11T01:56:41.021Z,35.13
2023-02-11T01:59:14.266Z,39.07
2023-02-11T02:01:47.411Z,37.10
2023-02-11T02:04:19.685Z,35.03
2023-02-11T02:06:52.677Z,31.03
2023-02-11T02:09:24.798Z,37.03
2023-02-11T02:11:53.071Z,35.93
2023-02-11T02:14:21.483Z,37.87
2023-02-11T02:16:49.644Z,38.73
2023-02-11T02:20:02.979Z,38.77
2023-02-11T02:23:08.370Z,33.30
2023-02-11T02:26:01.300Z,34.80
2023-02-11T02:28:59.912Z,38.27
2023-02-11T02:31:43.547Z,39.53
2023-02-11T02:34:20.769Z,35.97
2023-02-11T02:36:57.118Z,33.50
2023-02-11T02:39:28.564Z,39.07
2023-02-11T02:41:57.913Z,38.10
2023-02-11T02:44:26.211Z,33.07
2023-02-11T02:46:54.291Z,33.43
2023-02-11T02:49:23.782Z,33.83
2023-02-11T02:52:16.408Z,37.03
2023-02-11T02:55:10.024Z,34.60
2023-02-11T02:57:52.252Z,31.13
2023-02-11T03:00:27.264Z,32.47
2023-02-11T03:03:09.799Z,30.57
2023-02-11T03:05:49.492Z,35.77
2023-02-11T03:08:25.044Z,29.77
2023-02-11T03:10:55.144Z,33.07
2023-02-11T03:13:28.625Z,32.80
2023-02-11T03:15:59.194Z,37.53
2023-02-11T03:18:30.020Z,33.47
2023-02-11T03:21:00.989Z,32.53
2023-02-11T03:23:32.134Z,38.67
2023-02-11T03:26:06.256Z,33.40
2023-02-11T03:28:41.553Z,36.30
2023-02-11T03:31:15.838Z,37.33
2023-02-11T03:33:51.970Z,32.87
2023-02-11T03:36:27.842Z,33.67
2023-02-11T03:39:00.279Z,33.27
2023-02-11T03:41:28.694Z,38.97
2023-02-11T03:43:59.381Z,32.37
2023-02-11T03:46:32.368Z,33.73
2023-02-11T03:49:05.249Z,34.30
2023-02-11T03:51:35.838Z,35.10
2023-02-11T03:54:08.384Z,33.00
2023-02-11T03:56:42.896Z,36.27
2023-02-11T03:59:10.907Z,35.63
2023-02-11T04:01:38.888Z,34.27
2023-02-11T04:04:07.246Z,34.77
2023-02-11T04:06:36.574Z,41.83
2023-02-11T04:09:05.069Z,34.13
2023-02-11T04:11:33.091Z,33.90
2023-02-11T04:14:01.040Z,37.17
2023-02-11T04:16:30.896Z,38.27
2023-02-11T04:18:59.276Z,34.33
2023-02-11T04:21:27.232Z,31.90
2023-02-11T04:23:56.674Z,39.27
2023-02-11T04:26:24.616Z,32.20
2023-02-11T04:28:52.584Z,34.67
2023-02-11T04:31:20.636Z,32.53
2023-02-11T04:33:48.729Z,34.47
2023-02-11T04:36:16.664Z,29.07
2023-02-11T04:38:44.637Z,30.23
2023-02-11T04:41:14.088Z,30.37
2023-02-11T04:43:42.102Z,35.53
2023-02-11T04:46:10.198Z,40.03
2023-02-11T04:48:38.280Z,34.53
2023-02-11T04:51:06.500Z,36.17
2023-02-11T04:53:34.465Z,40.07
2023-02-11T04:56:02.536Z,33.47
2023-02-11T04:58:31.870Z,30.03
2023-02-11T05:01:07.809Z,35.83
2023-02-11T05:03:35.830Z,31.50
2023-02-11T05:06:03.956Z,36.07
2023-02-11T05:08:31.949Z,37.57
2023-02-11T05:11:02.119Z,36.43
2023-02-11T05:13:31.536Z,38.53
2023-02-11T05:15:59.482Z,36.40
2023-02-11T05:18:27.439Z,35.27
2023-02-11T05:20:55.909Z,33.27
2023-02-11T05:23:24.042Z,30.67
2023-02-11T05:25:52.300Z,33.77
2023-02-11T05:28:20.512Z,34.67
2023-02-11T05:30:49.907Z,33.30
2023-02-11T05:33:17.902Z,31.83
2023-02-11T05:35:45.885Z,35.43
2023-02-11T05:38:14.037Z,32.63
2023-02-11T05:40:42.436Z,33.90
2023-02-11T05:43:10.586Z,30.87
2023-02-11T05:45:38.557Z,36.37
2023-02-11T05:48:08.066Z,31.33
2023-02-11T05:50:36.019Z,29.87
2023-02-11T05:53:03.954Z,30.33
2023-02-11T05:55:32.156Z,32.03
2023-02-11T05:58:00.181Z,32.00
2023-02-11T06:00:28.375Z,30.10
2023-02-11T06:02:56.376Z,31.37
2023-02-11T06:05:25.792Z,31.87
2023-02-11T06:07:54.104Z,33.83
2023-02-11T06:10:22.253Z,34.67
2023-02-11T06:12:50.261Z,33.07
2023-02-11T06:15:18.428Z,35.00
2023-02-11T06:17:46.388Z,35.00
2023-02-11T06:20:14.440Z,33.20
2023-02-11T06:22:43.778Z,39.83
2023-02-11T06:25:12.117Z,37.97
2023-02-11T06:27:40.575Z,37.00
2023-02-11T06:30:09.834Z,41.30
2023-02-11T06:32:46.034Z,41.20
2023-02-11T06:35:14.752Z,38.20
2023-02-11T06:37:44.477Z,37.57
2023-02-11T06:40:13.423Z,41.07
2023-02-11T06:42:41.671Z,44.97
2023-02-11T06:45:10.946Z,37.70
2023-02-11T06:47:39.350Z,39.30
2023-02-11T06:50:10.283Z,39.20
2023-02-11T06:52:38.266Z,42.07
2023-02-11T06:55:07.984Z,42.63
2023-02-11T06:57:35.939Z,46.43
2023-02-11T07:00:05.556Z,43.13
2023-02-11T07:02:33.821Z,42.13
2023-02-11T07:05:01.832Z,45.03
2023-02-11T07:07:31.318Z,42.00
2023-02-11T07:10:01.005Z,46.77
2023-02-11T07:12:30.339Z,43.30
2023-02-11T07:14:58.782Z,43.23
2023-02-11T07:17:26.843Z,44.50
2023-02-11T07:19:54.841Z,44.73
2023-02-11T07:22:22.802Z,43.63
2023-02-11T07:24:51.416Z,40.60
2023-02-11T07:27:19.381Z,41.70
2023-02-11T07:29:48.764Z,39.60
2023-02-11T07:32:16.779Z,40.67
2023-02-11T07:34:45.563Z,46.77
2023-02-11T07:37:13.535Z,43.13
2023-02-11T07:39:41.508Z,44.43
2023-02-11T07:42:09.488Z,43.03
2023-02-11T07:44:37.498Z,41.10
2023-02-11T07:47:07.104Z,38.37
2023-02-11T07:49:35.249Z,40.40
2023-02-11T07:52:03.377Z,46.93
2023-02-11T07:54:31.346Z,40.27
2023-02-11T07:56:59.617Z,44.23
2023-02-11T07:59:27.661Z,41.63
2023-02-11T08:01:55.682Z,40.50
2023-02-11T08:04:25.038Z,44.10
2023-02-11T08:06:56.498Z,42.37
2023-02-11T08:09:25.823Z,43.80
2023-02-11T08:11:54.841Z,40.23
2023-02-11T08:14:25.107Z,38.77
2023-02-11T08:16:53.222Z,35.40
2023-02-11T08:19:21.300Z,36.67
2023-02-11T08:21:51.615Z,39.07
2023-02-11T08:24:19.583Z,38.00
2023-02-11T08:26:47.594Z,46.43
2023-02-11T08:29:17.279Z,42.10
2023-02-11T08:31:46.940Z,38.27
2023-02-11T08:34:18.994Z,39.97
2023-02-11T08:36:48.220Z,36.63
2023-02-11T08:39:20.607Z,36.83
2023-02-11T08:41:50.110Z,36.27
2023-02-11T08:44:18.660Z,38.73
2023-02-11T08:46:56.409Z,38.20
2023-02-11T08:49:24.857Z,38.23
2023-02-11T08:51:54.171Z,36.93
2023-02-11T08:54:23.566Z,31.87
2023-02-11T08:56:52.742Z,34.83
2023-02-11T08:59:20.818Z,35.87
2023-02-11T09:01:48.976Z,33.77
2023-02-11T09:04:17.188Z,34.87
2023-02-11T09:06:45.192Z,37.63
2023-02-11T09:09:14.953Z,29.70
2023-02-11T09:11:45.718Z,34.07
2023-02-11T09:14:19.642Z,39.07
2023-02-11T09:16:48.711Z,31.60
2023-02-11T09:19:16.983Z,37.07
2023-02-11T09:21:45.143Z,34.97
2023-02-11T09:24:13.222Z,32.00
2023-02-11T09:26:44.581Z,30.93
2023-02-11T09:29:12.786Z,36.87
2023-02-11T09:31:40.911Z,37.07
2023-02-11T09:34:09.516Z,29.50
2023-02-11T09:36:39.480Z,32.93
2023-02-11T09:39:09.908Z,36.03
2023-02-11T09:42:11.614Z,38.10
2023-02-11T09:44:40.771Z,34.70
2023-02-11T09:47:20.823Z,37.00
2023-02-11T09:49:52.223Z,38.70
2023-02-11T09:52:30.127Z,41.73
2023-02-11T09:54:59.757Z,33.40
2023-02-11T09:57:34.584Z,33.53
2023-02-11T10:00:03.857Z,35.80
2023-02-11T10:02:45.006Z,38.20
2023-02-11T10:05:25.031Z,34.57
2023-02-11T10:08:01.559Z,30.33
2023-02-11T10:10:41.923Z,30.07
2023-02-11T10:13:32.320Z,27.00
2023-02-11T10:16:10.521Z,30.57
2023-02-11T10:18:57.067Z,37.77
2023-02-11T10:21:33.794Z,33.40
2023-02-11T10:24:11.027Z,29.40
2023-02-11T10:26:40.682Z,31.20
2023-02-11T10:29:22.331Z,26.47
2023-02-11T10:31:51.779Z,30.73
2023-02-11T10:34:19.793Z,29.00
2023-02-11T10:36:47.779Z,26.23
2023-02-11T10:39:17.591Z,26.73
2023-02-11T10:41:47.194Z,28.27
2023-02-11T10:44:25.633Z,25.73
2023-02-11T10:46:54.698Z,26.63
2023-02-11T10:49:41.222Z,30.93
2023-02-11T10:52:19.657Z,27.23
2023-02-11T10:55:02.146Z,25.87
2023-02-11T10:57:35.028Z,32.03
2023-02-11T11:00:22.055Z,30.63
2023-02-11T11:02:57.243Z,24.70
2023-02-11T11:05:31.213Z,27.57
2023-02-11T11:08:02.137Z,19.03
2023-02-11T11:10:37.559Z,23.43
2023-02-11T11:13:05.644Z,21.37
2023-02-11T11:15:35.104Z,20.67
2023-02-11T11:18:21.971Z,25.13
2023-02-11T11:20:58.321Z,25.57
2023-02-11T11:23:27.205Z,27.23
2023-02-11T11:26:06.547Z,26.60
2023-02-11T11:28:40.280Z,22.60
2023-02-11T11:31:18.966Z,27.97
2023-02-11T11:33:48.244Z,18.37
2023-02-11T11:36:22.018Z,23.07
2023-02-11T11:38:55.311Z,22.30
2023-02-11T11:41:28.246Z,24.20
2023-02-11T11:44:05.258Z,24.00
2023-02-11T11:46:36.848Z,20.73
2023-02-11T11:49:14.542Z,23.77
2023-02-11T11:51:45.096Z,24.33
2023-02-11T11:54:16.351Z,26.70
2023-02-11T11:56:54.403Z,27.50
2023-02-11T11:59:23.435Z,31.00
2023-02-11T12:02:11.463Z,27.50
2023-02-11T12:04:50.154Z,30.33
2023-02-11T12:07:27.935Z,31.07
2023-02-11T12:10:18.824Z,24.03
2023-02-11T12:12:54.553Z,27.07
2023-02-11T12:15:32.293Z,22.33
2023-02-11T12:18:17.346Z,26.87
2023-02-11T12:21:08.458Z,27.33
2023-02-11T12:23:49.427Z,23.17
2023-02-11T12:26:21.297Z,35.03
2023-02-11T12:29:04.215Z,28.63
2023-02-11T12:31:50.473Z,38.53
2023-02-11T12:34:37.357Z,31.93
2023-02-11T12:37:18.422Z,24.77
2023-02-11T12:39:52.015Z,36.97
2023-02-11T12:43:08.999Z,27.07
2023-02-11T12:45:47.324Z,33.60
2023-02-11T12:48:28.208Z,29.37
2023-02-11T12:51:02.693Z,30.37
2023-02-11T12:53:53.747Z,40.23
2023-02-11T12:56:25.622Z,34.20
2023-02-11T12:58:57.871Z,35.63
2023-02-11T13:01:30.249Z,34.83
2023-02-11T13:04:01.875Z,31.43
2023-02-11T13:06:37.775Z,32.63
2023-02-11T13:09:12.866Z,33.17
2023-02-11T13:11:44.465Z,28.80
2023-02-11T13:14:22.985Z,35.10
2023-02-11T13:16:52.329Z,36.17
2023-02-11T13:19:27.600Z,30.57
2023-02-11T13:22:06.492Z,37.30
2023-02-11T13:24:44.254Z,38.30
2023-02-11T13:27:23.989Z,35.97
2023-02-11T13:30:28.332Z,35.97
2023-02-11T13:33:08.459Z,30.27
2023-02-11T13:35:38.834Z,33.27
2023-02-11T13:38:21.085Z,24.97
2023-02-11T13:41:02.121Z,21.87
2023-02-11T13:43:31.822Z,25.77
2023-02-11T13:46:01.486Z,26.77
2023-02-11T13:48:32.688Z,28.53
2023-02-11T13:51:05.497Z,25.23
2023-02-11T13:53:46.349Z,26.20
2023-02-11T13:56:29.185Z,32.60
2023-02-11T13:59:00.793Z,24.60
2023-02-11T14:02:20.721Z,26.80
2023-02-11T14:05:43.150Z,27.37
2023-02-11T14:08:39.427Z,31.47
2023-02-11T14:11:25.263Z,28.63
2023-02-11T14:14:15.937Z,26.73
2023-02-11T14:17:22.317Z,33.07
2023-02-11T14:19:51.370Z,26.77
2023-02-11T14:22:25.835Z,28.60
2023-02-11T14:24:57.036Z,29.70
2023-02-11T14:27:38.044Z,29.17
2023-02-11T14:30:42.867Z,26.93
2023-02-11T14:33:40.176Z,24.07
2023-02-11T14:36:19.422Z,26.17
2023-02-11T14:39:01.536Z,26.03
2023-02-11T14:41:32.934Z,23.77
2023-02-11T14:44:05.746Z,27.23
2023-02-11T14:46:34.508Z,24.80
2023-02-11T14:49:04.806Z,30.40
2023-02-11T14:51:36.164Z,25.07
2023-02-11T14:54:18.914Z,31.27
2023-02-11T14:56:48.001Z,27.30
2023-02-11T14:59:20.541Z,23.83
2023-02-11T15:01:52.584Z,24.93
2023-02-11T15:04:26.385Z,26.03
2023-02-11T15:06:56.175Z,29.93
2023-02-11T15:09:30.479Z,35.00
2023-02-11T15:11:59.578Z,32.73
2023-02-11T15:14:31.820Z,30.10
2023-02-11T15:17:02.312Z,27.57
2023-02-11T15:19:34.535Z,34.97
2023-02-11T15:22:05.316Z,34.63
2023-02-11T15:24:35.331Z,34.13
2023-02-11T15:27:05.290Z,31.43
2023-02-11T15:29:39.789Z,30.47
2023-02-11T15:32:13.910Z,31.83
2023-02-11T15:34:42.626Z,31.33
2023-02-11T15:37:14.888Z,31.17
2023-02-11T15:39:43.775Z,34.13
2023-02-11T15:42:26.389Z,29.80
2023-02-11T15:47:52.145Z,27.07
2023-02-11T15:50:22.462Z,26.50
2023-02-11T15:52:51.156Z,26.87
2023-02-11T15:55:19.936Z,25.73
2023-02-11T15:57:52.724Z,28.00
2023-02-11T16:00:24.615Z,26.73
2023-02-11T16:02:54.881Z,27.90
2023-02-11T16:05:29.644Z,27.53
2023-02-11T16:07:58.779Z,32.77
2023-02-11T16:10:30.610Z,41.10
2023-02-11T16:13:18.597Z,44.83
2023-02-11T16:15:58.460Z,44.27
2023-02-11T16:18:38.725Z,43.30
2023-02-11T16:21:13.295Z,42.53
2023-02-11T16:23:43.180Z,43.70
2023-02-11T16:26:21.810Z,50.47
2023-02-11T16:28:50.232Z,43.43
2023-02-11T16:31:18.559Z,42.93
2023-02-11T16:33:48.257Z,49.30
2023-02-11T16:36:18.242Z,49.93
2023-02-11T16:38:46.312Z,43.27
2023-02-11T16:41:14.658Z,50.20
2023-02-11T16:43:42.694Z,40.23
2023-02-11T16:46:15.205Z,39.33
2023-02-11T16:48:43.395Z,42.57
2023-02-11T16:51:13.906Z,37.70
2023-02-11T16:53:41.918Z,39.53
2023-02-11T16:56:15.602Z,32.73
2023-02-11T16:58:43.710Z,38.33
2023-02-11T17:01:13.956Z,43.47
2023-02-11T17:03:43.667Z,44.50
2023-02-11T17:06:14.525Z,43.80
2023-02-11T17:08:42.692Z,38.60
2023-02-11T17:11:10.716Z,47.80
2023-02-11T17:13:39.583Z,44.13
2023-02-11T17:16:12.348Z,37.40
2023-02-11T17:18:40.417Z,35.97
2023-02-11T17:21:08.775Z,34.87
2023-02-11T17:23:38.630Z,39.97
2023-02-11T17:26:07.186Z,36.63
2023-02-11T17:28:36.019Z,38.50
2023-02-11T17:31:09.484Z,38.63
2023-02-11T17:33:38.849Z,41.80
2023-02-11T17:36:08.197Z,33.77
2023-02-11T17:38:38.474Z,36.90
2023-02-11T17:41:06.887Z,47.40
2023-02-11T17:43:34.995Z,36.93
2023-02-11T17:46:06.351Z,38.97
2023-02-11T17:48:34.369Z,42.37
2023-02-11T17:51:02.352Z,38.07
2023-02-11T17:53:30.339Z,39.17
2023-02-11T17:55:59.628Z,34.90
2023-02-11T17:58:27.615Z,37.83
2023-02-11T18:00:59.180Z,36.53
2023-02-11T18:03:27.199Z,44.63
2023-02-11T18:05:55.100Z,40.43
2023-02-11T18:08:23.296Z,42.00
2023-02-11T18:10:51.367Z,45.90
2023-02-11T18:13:20.701Z,42.93
2023-02-11T18:15:48.808Z,34.90
2023-02-11T18:18:17.064Z,44.33
2023-02-11T18:20:46.542Z,42.03
2023-02-11T18:23:15.203Z,40.60
2023-02-11T18:25:44.281Z,39.37
2023-02-11T18:28:12.312Z,38.43
2023-02-11T18:30:41.770Z,42.20
2023-02-11T18:33:12.701Z,44.93
2023-02-11T18:35:41.217Z,39.03
2023-02-11T18:38:09.367Z,38.63
2023-02-11T18:40:40.466Z,36.43
2023-02-11T18:43:08.696Z,37.17
2023-02-11T18:45:36.695Z,38.93
2023-02-11T18:48:07.011Z,40.37
2023-02-11T18:50:35.070Z,42.57
2023-02-11T18:53:03.044Z,43.57
2023-02-11T18:55:31.677Z,45.27
2023-02-11T18:57:59.683Z,44.73
2023-02-11T19:00:27.861Z,41.03
2023-02-11T19:02:55.927Z,38.53
2023-02-11T19:05:28.651Z,43.37
2023-02-11T19:07:58.164Z,39.50
2023-02-11T19:10:26.769Z,49.07
2023-02-11T19:12:56.251Z,45.60
2023-02-11T19:15:24.330Z,42.67
2023-02-11T19:17:52.396Z,43.83
2023-02-11T19:20:20.470Z,49.87
2023-02-11T19:22:49.826Z,52.73
2023-02-11T19:25:18.067Z,52.87
2023-02-11T19:27:46.078Z,49.20
2023-02-11T19:30:14.643Z,50.20
2023-02-11T19:32:42.697Z,53.20
2023-02-11T19:35:10.653Z,45.53
2023-02-11T19:37:38.636Z,51.77
2023-02-11T19:40:09.393Z,43.37
2023-02-11T19:42:37.740Z,50.33
2023-02-11T19:45:07.344Z,53.70
2023-02-11T19:47:35.661Z,50.83
2023-02-11T19:50:04.296Z,51.27
2023-02-11T19:52:32.305Z,45.23
2023-02-11T19:55:01.444Z,54.00
2023-02-11T19:57:30.792Z,48.67
2023-02-11T19:59:58.783Z,45.97
2023-02-11T20:02:26.763Z,51.67
2023-02-11T20:04:54.825Z,54.40
2023-02-11T20:07:22.826Z,54.47
2023-02-11T20:09:50.784Z,60.10
2023-02-11T20:12:18.775Z,53.60
2023-02-11T20:14:48.071Z,58.10
2023-02-11T20:17:16.010Z,54.53
2023-02-11T20:19:43.984Z,55.20
2023-02-11T20:22:11.936Z,54.73
2023-02-11T20:24:40.034Z,58.20
2023-02-11T20:27:08.441Z,60.03
2023-02-11T20:29:36.434Z,53.23
2023-02-11T20:32:06.481Z,48.37
2023-02-11T20:34:34.724Z,49.23
2023-02-11T20:37:02.976Z,47.57
2023-02-11T20:39:30.906Z,44.70
2023-02-11T20:41:58.913Z,43.97
2023-02-11T20:44:26.852Z,43.27
2023-02-11T20:46:55.529Z,43.10
2023-02-11T20:49:26.895Z,48.17
2023-02-11T20:51:55.565Z,41.30
2023-02-11T20:54:24.666Z,39.70
2023-02-11T20:56:53.928Z,35.97
2023-02-11T20:59:22.684Z,30.63
2023-02-11T21:01:55.230Z,33.67
2023-02-11T21:04:26.753Z,27.03
2023-02-11T21:06:56.365Z,27.53
2023-02-11T21:09:25.878Z,37.17
2023-02-11T21:11:55.257Z,32.07
2023-02-11T21:14:24.790Z,33.83
2023-02-11T21:16:53.437Z,35.17
2023-02-11T21:19:21.643Z,32.20
2023-02-11T21:21:51.210Z,31.93
2023-02-11T21:24:19.245Z,36.60
2023-02-11T21:26:47.257Z,35.37
2023-02-11T21:29:15.302Z,37.07
2023-02-11T21:31:43.382Z,28.67
2023-02-11T21:34:12.003Z,30.57
2023-02-11T21:36:40.050Z,37.27
2023-02-11T21:39:09.704Z,36.97
2023-02-11T21:41:37.902Z,40.67
2023-02-11T21:44:06.049Z,39.53
2023-02-11T21:46:34.095Z,36.90
2023-02-11T21:49:02.083Z,39.50
2023-02-11T21:51:30.298Z,35.43
2023-02-11T21:53:59.782Z,27.47
2023-02-11T21:56:30.300Z,35.43
2023-02-11T21:58:59.724Z,32.10
2023-02-11T22:01:30.244Z,24.13
2023-02-11T22:03:58.706Z,22.73
2023-02-11T22:06:30.862Z,26.53
2023-02-11T22:08:59.590Z,27.77
2023-02-11T22:11:28.979Z,20.97
2023-02-11T22:13:57.847Z,22.23
2023-02-11T22:16:27.030Z,20.87
2023-02-11T22:18:55.142Z,18.00
2023-02-11T22:21:24.067Z,15.67
2023-02-11T22:23:52.801Z,21.07
2023-02-11T22:26:22.728Z,18.43
2023-02-11T22:28:53.618Z,14.23
2023-02-11T22:31:24.677Z,13.47
2023-02-11T22:33:53.101Z,12.37
2023-02-11T22:36:23.148Z,13.23
2023-02-11T22:38:51.259Z,12.87
2023-02-11T22:41:20.509Z,11.63
2023-02-11T22:43:48.780Z,8.67
2023-02-11T22:46:19.592Z,8.20
2023-02-11T22:48:48.707Z,7.27
2023-02-11T22:51:19.879Z,6.17
2023-02-11T22:53:51.768Z,7.13
2023-02-11T22:56:20.551Z,7.33
2023-02-11T22:58:49.071Z,5.60
2023-02-11T23:01:18.886Z,6.90
2023-02-11T23:03:46.911Z,6.47
2023-02-11T23:06:15.470Z,9.17
2023-02-11T23:08:43.947Z,10.83
2023-02-11T23:11:14.007Z,11.33
2023-02-11T23:13:43.904Z,13.70
2023-02-11T23:16:14.193Z,14.90
2023-02-11T23:18:45.077Z,11.13
2023-02-11T23:21:16.549Z,11.07
2023-02-11T23:23:44.843Z,9.27
2023-02-11T23:26:14.181Z,12.77
2023-02-11T23:28:45.141Z,10.63
2023-02-11T23:31:18.222Z,11.27
2023-02-11T23:33:48.480Z,12.70
2023-02-11T23:36:17.582Z,10.37
2023-02-11T23:38:45.815Z,8.30
2023-02-11T23:41:15.211Z,7.77
2023-02-11T23:43:43.585Z,7.80
2023-02-11T23:46:13.225Z,6.27
2023-02-11T23:48:41.375Z,4.27
2023-02-11T23:51:10.763Z,4.93
2023-02-11T23:53:39.313Z,4.60
2023-02-11T23:56:09.527Z,3.37
2023-02-11T23:58:38.012Z,4.47
